Time;durP1;ratioP1;P1;durP2;ratioP2;P2;SDS_P1;SDS_P2;PMS_P1;PMS_P2;Temp;Humidity;BMP_temperature;BMP_pressure;BME280_temperature;BME280_humidity;BME280_pressure;Samples;Min_cycle;Max_cycle;Signal;HPM_P1;HPM_P2
2024/02/24 00:00:01;;;;;;;5.10;1.70;;;;;;;;;;103373;1291;544810;-69
2024/02/24 00:03:38;;;;;;;7.20;3.00;;;;;;;;;;103690;1289;546274;-70
2024/02/24 00:07:16;;;;;;;6.70;2.40;;;;;;;;;;103365;1291;545453;-69
2024/02/24 00:10:54;;;;;;;6.20;2.00;;;;;;;;;;103568;1292;545495;-69
2024/02/24 00:14:31;;;;;;;8.10;3.40;;;;;;;;;;103568;1292;544709;-70
2024/02/24 00:18:08;;;;;;;6.80;2.80;;;;;;;;;;103575;1290;544944;-70
2024/02/24 00:21:45;;;;;;;4.40;2.20;;;;;;;;;;103467;1294;544899;-69
2024/02/24 00:25:23;;;;;;;4.90;1.60;;;;;;;;;;103554;1292;545306;-69
2024/02/24 00:29:00;;;;;;;3.20;1.20;;;;;;;;;;103362;1291;544969;-70
2024/02/24 00:32:38;;;;;;;3.90;1.40;;;;;;;;;;103765;1288;544814;-70
2024/02/24 00:36:15;;;;;;;3.30;1.00;;;;;;;;;;103337;1291;544866;-69
2024/02/24 00:39:53;;;;;;;2.20;0.80;;;;;;;;;;103515;1294;545250;-69
2024/02/24 00:43:30;;;;;;;3.40;1.00;;;;;;;;;;103567;1292;545847;-70
2024/02/24 00:47:08;;;;;;;3.30;1.00;;;;;;;;;;103626;1289;545086;-69
2024/02/24 00:50:46;;;;;;;4.80;1.70;;;;;;;;;;103742;1291;545682;-68
2024/02/24 00:54:24;;;;;;;3.20;1.20;;;;;;;;;;103498;1292;545031;-69
2024/02/24 00:58:00;;;;;;;2.90;1.10;;;;;;;;;;103493;1291;545253;-69
2024/02/24 01:01:34;;;;;;;4.90;1.40;;;;;;;;;;103588;1301;545289;-69
2024/02/24 01:05:16;;;;;;;3.50;1.10;;;;;;;;;;103812;1289;544954;-69
2024/02/24 01:08:53;;;;;;;3.50;1.00;;;;;;;;;;103656;1289;544986;-69
2024/02/24 01:12:30;;;;;;;2.90;0.90;;;;;;;;;;103456;1295;545346;-69
2024/02/24 01:16:08;;;;;;;2.20;1.00;;;;;;;;;;103650;1289;545026;-69
2024/02/24 01:19:45;;;;;;;2.10;0.80;;;;;;;;;;103881;1285;544769;-69
2024/02/24 01:23:24;;;;;;;2.10;0.80;;;;;;;;;;103611;1288;545312;-69
2024/02/24 01:27:00;;;;;;;2.50;1.00;;;;;;;;;;103530;1290;546012;-69
2024/02/24 01:30:38;;;;;;;4.50;1.30;;;;;;;;;;103785;1289;544959;-70
2024/02/24 01:34:11;;;;;;;4.00;1.40;;;;;;;;;;104198;1283;545486;-69
2024/02/24 01:37:52;;;;;;;3.40;1.40;;;;;;;;;;103628;1289;544918;-70
2024/02/24 01:41:30;;;;;;;3.80;1.50;;;;;;;;;;103643;1293;545171;-70
2024/02/24 01:45:08;;;;;;;3.20;1.20;;;;;;;;;;103639;1288;545909;-70
2024/02/24 01:48:45;;;;;;;3.20;1.40;;;;;;;;;;103481;1289;545848;-70
2024/02/24 01:52:23;;;;;;;2.80;1.20;;;;;;;;;;103709;1289;545617;-70
2024/02/24 01:56:01;;;;;;;3.40;1.60;;;;;;;;;;103529;1290;544830;-70
2024/02/24 01:59:38;;;;;;;3.10;0.80;;;;;;;;;;103646;1289;544891;-69
2024/02/24 02:03:14;;;;;;;4.10;0.70;;;;;;;;;;103608;1289;545354;-69
2024/02/24 02:06:52;;;;;;;2.70;0.70;;;;;;;;;;103661;1289;544709;-69
2024/02/24 02:10:46;;;;;;;2.60;0.80;;;;;;;;;;103453;1295;544840;-69
2024/02/24 02:14:08;;;;;;;3.40;0.70;;;;;;;;;;103596;1292;544915;-70
2024/02/24 02:17:45;;;;;;;1.50;0.40;;;;;;;;;;103978;1288;545049;-70
2024/02/24 02:21:23;;;;;;;1.80;0.60;;;;;;;;;;103619;1292;545455;-70
2024/02/24 02:24:59;;;;;;;1.90;0.60;;;;;;;;;;103472;1290;544812;-70
2024/02/24 02:28:36;;;;;;;0.80;0.40;;;;;;;;;;103664;1289;545300;-70
2024/02/24 02:32:13;;;;;;;1.30;0.50;;;;;;;;;;103702;1291;545028;-69
2024/02/24 02:35:52;;;;;;;1.00;0.50;;;;;;;;;;103831;1289;545004;-69
2024/02/24 02:39:28;;;;;;;1.30;0.40;;;;;;;;;;103653;1295;544843;-69
2024/02/24 02:43:07;;;;;;;0.90;0.40;;;;;;;;;;103814;1289;545516;-70
2024/02/24 02:46:49;;;;;;;1.30;0.40;;;;;;;;;;103494;1291;544731;-70
2024/02/24 02:50:22;;;;;;;1.20;0.50;;;;;;;;;;103731;1289;545048;-70
2024/02/24 02:53:58;;;;;;;2.80;0.70;;;;;;;;;;103793;1289;544931;-69
2024/02/24 02:57:37;;;;;;;2.60;0.80;;;;;;;;;;103650;1289;544898;-69
2024/02/24 03:01:14;;;;;;;3.90;1.20;;;;;;;;;;103469;1295;545160;-69
2024/02/24 03:04:53;;;;;;;2.50;0.90;;;;;;;;;;103739;1292;545584;-70
2024/02/24 03:08:32;;;;;;;3.70;1.20;;;;;;;;;;103487;1290;545983;-69
2024/02/24 03:12:07;;;;;;;3.00;1.20;;;;;;;;;;103651;1290;545123;-69
2024/02/24 03:15:44;;;;;;;5.30;1.80;;;;;;;;;;103846;1289;545504;-70
2024/02/24 03:19:18;;;;;;;4.90;1.80;;;;;;;;;;103644;1288;545693;-70
2024/02/24 03:22:59;;;;;;;4.60;1.70;;;;;;;;;;103544;1290;544827;-69
2024/02/24 03:26:39;;;;;;;5.30;1.90;;;;;;;;;;104004;1289;546052;-70
2024/02/24 03:30:14;;;;;;;6.60;2.40;;;;;;;;;;103489;1295;544985;-70
2024/02/24 03:33:48;;;;;;;6.70;2.90;;;;;;;;;;103660;1290;545033;-69
2024/02/24 03:37:29;;;;;;;6.20;2.40;;;;;;;;;;103478;1297;544866;-69
2024/02/24 03:41:06;;;;;;;6.30;2.60;;;;;;;;;;103664;1302;544909;-69
2024/02/24 03:44:39;;;;;;;4.60;2.00;;;;;;;;;;103719;1288;545711;-70
2024/02/24 03:48:17;;;;;;;4.50;2.00;;;;;;;;;;103680;1289;545945;-70
2024/02/24 03:51:57;;;;;;;4.80;1.80;;;;;;;;;;103527;1295;544966;-71
2024/02/24 03:55:36;;;;;;;5.00;1.80;;;;;;;;;;103640;1289;545508;-70
2024/02/24 03:59:13;;;;;;;3.90;1.50;;;;;;;;;;103453;1291;544900;-70
2024/02/24 04:02:51;;;;;;;3.60;1.50;;;;;;;;;;103518;1289;545883;-71
2024/02/24 04:06:27;;;;;;;5.20;1.70;;;;;;;;;;103570;1292;544609;-70
2024/02/24 04:10:06;;;;;;;4.00;1.60;;;;;;;;;;103571;1295;544738;-70
2024/02/24 04:13:43;;;;;;;4.10;1.40;;;;;;;;;;103799;1285;545316;-71
2024/02/24 04:17:21;;;;;;;3.80;1.50;;;;;;;;;;103665;1289;545402;-70
2024/02/24 04:20:57;;;;;;;5.40;1.70;;;;;;;;;;103539;1293;544851;-70
2024/02/24 04:24:32;;;;;;;5.00;1.50;;;;;;;;;;103630;1292;545247;-70
2024/02/24 04:28:13;;;;;;;4.20;1.40;;;;;;;;;;103470;1291;544806;-71
2024/02/24 04:31:51;;;;;;;6.20;1.70;;;;;;;;;;103835;1295;545772;-70
2024/02/24 04:35:28;;;;;;;5.10;1.70;;;;;;;;;;103548;1290;545476;-70
2024/02/24 04:39:05;;;;;;;5.50;1.80;;;;;;;;;;103776;1290;544936;-71
2024/02/24 04:42:43;;;;;;;4.30;1.50;;;;;;;;;;103610;1295;545059;-71
2024/02/24 04:46:20;;;;;;;4.20;1.40;;;;;;;;;;103641;1292;544890;-70
2024/02/24 04:49:57;;;;;;;3.10;1.10;;;;;;;;;;103694;1289;544751;-70
2024/02/24 04:53:35;;;;;;;3.20;1.30;;;;;;;;;;103619;1293;545708;-71
2024/02/24 04:57:13;;;;;;;3.90;1.40;;;;;;;;;;103730;1292;545079;-71
2024/02/24 05:00:51;;;;;;;4.50;1.40;;;;;;;;;;103605;1291;545789;-70
2024/02/24 05:04:28;;;;;;;5.10;1.50;;;;;;;;;;103558;1291;544925;-71
2024/02/24 05:08:06;;;;;;;4.00;1.40;;;;;;;;;;103724;1289;545325;-71
2024/02/24 05:11:42;;;;;;;3.50;1.40;;;;;;;;;;103614;1292;545914;-71
2024/02/24 05:15:21;;;;;;;3.50;1.20;;;;;;;;;;103794;1289;545292;-70
2024/02/24 05:18:58;;;;;;;5.00;1.30;;;;;;;;;;103550;1292;544828;-70
2024/02/24 05:22:36;;;;;;;3.90;1.60;;;;;;;;;;103815;1289;545660;-70
2024/02/24 05:26:25;;;;;;;3.40;1.40;;;;;;;;;;103725;1290;545025;-70
2024/02/24 05:29:51;;;;;;;5.30;1.80;;;;;;;;;;103655;1289;544769;-72
2024/02/24 05:33:28;;;;;;;4.50;1.60;;;;;;;;;;103689;1301;545312;-71
2024/02/24 05:37:06;;;;;;;5.30;1.70;;;;;;;;;;103813;1291;544967;-71
2024/02/24 05:40:42;;;;;;;5.30;1.80;;;;;;;;;;103789;1292;545517;-71
2024/02/24 05:44:21;;;;;;;6.60;1.80;;;;;;;;;;103834;1292;545919;-71
2024/02/24 05:47:57;;;;;;;5.70;1.90;;;;;;;;;;103727;1290;545373;-71
2024/02/24 05:51:36;;;;;;;5.70;1.60;;;;;;;;;;103837;1290;545268;-71
2024/02/24 05:55:14;;;;;;;4.80;1.90;;;;;;;;;;103747;1295;544867;-71
2024/02/24 05:58:51;;;;;;;6.60;2.20;;;;;;;;;;103800;1289;546017;-71
2024/02/24 06:02:27;;;;;;;7.40;1.90;;;;;;;;;;104130;1289;544774;-71
2024/02/24 06:06:07;;;;;;;6.20;2.00;;;;;;;;;;104469;1283;545679;-71
2024/02/24 06:09:42;;;;;;;4.00;1.30;;;;;;;;;;103866;1289;545025;-72
2024/02/24 06:13:20;;;;;;;3.80;1.50;;;;;;;;;;103935;1288;544777;-71
2024/02/24 06:16:56;;;;;;;4.40;1.40;;;;;;;;;;103742;1290;544992;-71
2024/02/24 06:20:36;;;;;;;5.50;1.70;;;;;;;;;;103820;1292;544913;-71
2024/02/24 06:24:12;;;;;;;5.30;1.80;;;;;;;;;;103825;1292;545924;-72
2024/02/24 06:27:50;;;;;;;6.10;2.00;;;;;;;;;;103795;1292;545069;-71
2024/02/24 06:31:27;;;;;;;6.70;2.20;;;;;;;;;;103952;1289;545052;-71
2024/02/24 06:35:05;;;;;;;5.90;2.20;;;;;;;;;;103830;1289;545084;-72
2024/02/24 06:38:41;;;;;;;6.80;2.10;;;;;;;;;;103899;1289;545606;-71
2024/02/24 06:42:20;;;;;;;6.40;1.70;;;;;;;;;;103726;1291;545841;-71
2024/02/24 06:45:58;;;;;;;6.00;2.30;;;;;;;;;;103704;1291;545002;-71
2024/02/24 06:49:34;;;;;;;8.60;5.90;;;;;;;;;;103647;1291;544787;-72
2024/02/24 06:53:11;;;;;;;8.00;4.80;;;;;;;;;;103874;1295;545248;-71
2024/02/24 06:56:49;;;;;;;9.00;4.60;;;;;;;;;;103781;1292;545940;-71
2024/02/24 07:00:26;;;;;;;10.00;4.70;;;;;;;;;;103795;1291;544985;-72
2024/02/24 07:04:04;;;;;;;9.70;4.20;;;;;;;;;;103745;1289;545761;-73
2024/02/24 07:07:41;;;;;;;7.20;3.00;;;;;;;;;;103911;1289;546023;-72
2024/02/24 07:11:19;;;;;;;5.90;2.20;;;;;;;;;;103775;1289;545490;-72
2024/02/24 07:14:55;;;;;;;5.60;2.20;;;;;;;;;;103697;1292;544796;-72
2024/02/24 07:18:38;;;;;;;6.30;2.30;;;;;;;;;;103641;1289;545001;-73
2024/02/24 07:22:12;;;;;;;8.50;2.50;;;;;;;;;;103722;1291;545034;-72
2024/02/24 07:25:48;;;;;;;5.20;2.10;;;;;;;;;;103821;1288;545941;-72
2024/02/24 07:29:26;;;;;;;7.90;2.70;;;;;;;;;;103772;1289;545243;-72
2024/02/24 07:33:01;;;;;;;5.70;2.40;;;;;;;;;;103791;1294;544988;-71
2024/02/24 07:36:41;;;;;;;4.50;2.10;;;;;;;;;;104062;1288;545494;-71
2024/02/24 07:40:19;;;;;;;5.10;2.10;;;;;;;;;;103742;1289;545674;-72
2024/02/24 07:43:56;;;;;;;5.80;2.30;;;;;;;;;;103746;1291;544914;-72
2024/02/24 07:47:35;;;;;;;6.10;2.50;;;;;;;;;;103773;1289;545434;-72
2024/02/24 07:51:11;;;;;;;6.50;2.80;;;;;;;;;;103935;1288;545054;-71
2024/02/24 07:54:49;;;;;;;5.80;2.60;;;;;;;;;;103639;1296;544814;-72
2024/02/24 07:58:26;;;;;;;6.80;3.40;;;;;;;;;;103696;1289;545473;-71
2024/02/24 08:02:04;;;;;;;7.20;3.10;;;;;;;;;;104507;1283;545748;-72
2024/02/24 08:05:41;;;;;;;6.50;3.50;;;;;;;;;;103731;1292;545726;-72
2024/02/24 08:09:19;;;;;;;6.60;3.10;;;;;;;;;;103743;1292;544853;-71
2024/02/24 08:12:56;;;;;;;5.60;2.50;;;;;;;;;;104297;1283;546649;-72
2024/02/24 08:16:34;;;;;;;5.20;2.50;;;;;;;;;;103792;1289;544787;-72
2024/02/24 08:20:12;;;;;;;6.40;2.90;;;;;;;;;;103896;1289;544896;-73
2024/02/24 08:23:48;;;;;;;6.50;2.40;;;;;;;;;;103779;1292;544996;-72
2024/02/24 08:27:25;;;;;;;6.20;2.50;;;;;;;;;;103716;1292;544710;-72
2024/02/24 08:31:03;;;;;;;8.60;2.70;;;;;;;;;;103655;1291;544876;-71
2024/02/24 08:34:40;;;;;;;5.00;2.00;;;;;;;;;;103698;1294;544779;-71
2024/02/24 08:38:18;;;;;;;5.40;2.50;;;;;;;;;;104094;1287;544724;-72
2024/02/24 08:41:55;;;;;;;7.00;2.80;;;;;;;;;;103792;1290;545702;-71
2024/02/24 08:45:33;;;;;;;7.80;2.70;;;;;;;;;;103879;1295;544830;-71
2024/02/24 08:49:10;;;;;;;4.50;1.90;;;;;;;;;;103772;1291;544989;-72
2024/02/24 08:52:48;;;;;;;6.10;2.00;;;;;;;;;;103720;1293;545427;-72
2024/02/24 08:56:23;;;;;;;6.30;1.90;;;;;;;;;;103772;1301;545002;-71
2024/02/24 08:59:59;;;;;;;5.50;2.10;;;;;;;;;;103931;1289;544953;-72
2024/02/24 09:03:41;;;;;;;6.00;2.10;;;;;;;;;;103748;1292;545529;-69
2024/02/24 09:07:20;;;;;;;5.80;2.30;;;;;;;;;;103683;1292;545045;-71
2024/02/24 09:10:55;;;;;;;5.90;2.40;;;;;;;;;;103725;1292;544866;-71
2024/02/24 09:14:29;;;;;;;5.30;1.80;;;;;;;;;;103731;1290;544963;-71
2024/02/24 09:18:09;;;;;;;5.10;2.30;;;;;;;;;;103771;1289;544777;-71
2024/02/24 09:21:48;;;;;;;6.20;2.60;;;;;;;;;;103735;1292;545329;-71
2024/02/24 09:25:25;;;;;;;6.50;2.70;;;;;;;;;;104379;1289;544829;-72
2024/02/24 09:29:03;;;;;;;7.20;2.70;;;;;;;;;;103745;1303;545889;-71
2024/02/24 09:32:40;;;;;;;6.70;3.20;;;;;;;;;;103784;1289;545952;-72
2024/02/24 09:36:17;;;;;;;7.30;3.30;;;;;;;;;;103639;1295;544993;-72
2024/02/24 09:39:54;;;;;;;6.10;2.60;;;;;;;;;;103896;1289;545072;-72
2024/02/24 09:43:28;;;;;;;6.60;3.10;;;;;;;;;;103593;1288;544825;-70
2024/02/24 09:47:09;;;;;;;8.50;4.00;;;;;;;;;;103809;1289;545179;-72
2024/02/24 09:50:47;;;;;;;11.40;5.40;;;;;;;;;;103754;1293;545006;-72
2024/02/24 09:54:26;;;;;;;7.30;3.80;;;;;;;;;;103741;1291;545606;-73
2024/02/24 09:57:59;;;;;;;9.20;4.20;;;;;;;;;;103907;1291;545665;-73
2024/02/24 10:01:39;;;;;;;9.50;4.00;;;;;;;;;;103633;1295;544846;-73
2024/02/24 10:05:17;;;;;;;7.90;3.70;;;;;;;;;;103725;1301;545034;-71
2024/02/24 10:08:54;;;;;;;6.60;3.20;;;;;;;;;;103682;1291;544816;-72
2024/02/24 10:12:32;;;;;;;8.50;3.50;;;;;;;;;;103773;1291;545374;-73
2024/02/24 10:16:09;;;;;;;7.50;3.60;;;;;;;;;;103798;1296;544988;-72
2024/02/24 10:19:47;;;;;;;40.90;21.70;;;;;;;;;;103739;1291;545268;-71
2024/02/24 10:23:24;;;;;;;7.30;3.30;;;;;;;;;;103614;1291;545521;-72
2024/02/24 10:27:01;;;;;;;6.70;3.20;;;;;;;;;;103740;1292;545342;-72
2024/02/24 10:30:39;;;;;;;7.80;3.20;;;;;;;;;;103766;1292;545571;-73
2024/02/24 10:34:17;;;;;;;8.40;3.90;;;;;;;;;;103989;1290;545522;-72
2024/02/24 10:38:14;;;;;;;7.30;3.70;;;;;;;;;;103883;1289;549409;-70
2024/02/24 10:41:33;;;;;;;7.70;4.00;;;;;;;;;;103781;1289;545279;-73
2024/02/24 10:45:07;;;;;;;8.50;3.50;;;;;;;;;;103870;1302;545372;-71
2024/02/24 10:48:47;;;;;;;6.80;3.20;;;;;;;;;;103896;1289;545541;-71
2024/02/24 10:52:23;;;;;;;6.30;2.90;;;;;;;;;;103653;1292;545620;-72
2024/02/24 10:56:02;;;;;;;6.70;2.60;;;;;;;;;;103760;1293;545479;-71
2024/02/24 10:59:38;;;;;;;7.40;3.60;;;;;;;;;;103857;1289;544796;-72
2024/02/24 11:03:18;;;;;;;7.20;3.70;;;;;;;;;;103839;1288;545346;-72
2024/02/24 11:07:22;;;;;;;7.60;3.70;;;;;;;;;;103642;1292;547937;-71
2024/02/24 11:10:32;;;;;;;10.50;4.00;;;;;;;;;;103801;1290;544756;-73
2024/02/24 11:14:09;;;;;;;7.40;3.60;;;;;;;;;;103596;1291;544832;-73
2024/02/24 11:17:51;;;;;;;7.30;3.20;;;;;;;;;;103715;1300;544985;-73
2024/02/24 11:21:43;;;;;;;8.30;3.80;;;;;;;;;;103724;1295;545874;-73
2024/02/24 11:25:03;;;;;;;6.60;3.10;;;;;;;;;;103746;1292;544813;-71
2024/02/24 11:29:03;;;;;;;8.30;4.30;;;;;;;;;;103819;1288;544796;-69
2024/02/24 11:32:16;;;;;;;7.50;3.40;;;;;;;;;;103851;1289;544761;-71
2024/02/24 11:35:56;;;;;;;7.00;3.20;;;;;;;;;;103808;1295;545012;-72
2024/02/24 11:39:33;;;;;;;8.10;3.40;;;;;;;;;;103750;1289;545735;-72
2024/02/24 11:43:08;;;;;;;7.20;3.00;;;;;;;;;;103670;1292;545349;-71
2024/02/24 11:46:47;;;;;;;7.90;3.40;;;;;;;;;;103931;1295;544768;-70
2024/02/24 11:50:23;;;;;;;7.60;3.20;;;;;;;;;;103828;1289;544838;-73
2024/02/24 11:54:03;;;;;;;6.30;2.30;;;;;;;;;;103780;1289;545402;-71
2024/02/24 11:57:39;;;;;;;5.90;2.50;;;;;;;;;;104092;1290;545387;-70
2024/02/24 12:01:16;;;;;;;6.80;2.40;;;;;;;;;;103879;1292;544950;-70
2024/02/24 12:04:53;;;;;;;6.70;2.80;;;;;;;;;;103860;1292;544799;-71
2024/02/24 12:08:37;;;;;;;5.90;2.10;;;;;;;;;;103573;1294;546182;-71
2024/02/24 12:12:04;;;;;;;8.40;2.60;;;;;;;;;;103797;1292;544710;-72
2024/02/24 12:15:46;;;;;;;7.70;2.50;;;;;;;;;;103805;1290;546060;-73
2024/02/24 12:19:25;;;;;;;5.60;2.30;;;;;;;;;;103621;1304;544932;-70
2024/02/24 12:23:05;;;;;;;5.30;2.40;;;;;;;;;;103886;1289;544770;-72
2024/02/24 12:26:37;;;;;;;5.70;2.00;;;;;;;;;;103952;1289;545540;-72
2024/02/24 12:30:16;;;;;;;5.10;1.80;;;;;;;;;;103604;1292;545310;-72
2024/02/24 12:33:53;;;;;;;6.30;2.30;;;;;;;;;;103693;1291;544913;-72
2024/02/24 12:37:34;;;;;;;5.90;2.30;;;;;;;;;;103726;1292;545053;-71
2024/02/24 12:41:09;;;;;;;10.10;4.30;;;;;;;;;;103700;1296;544930;-72
2024/02/24 12:44:46;;;;;;;6.00;2.10;;;;;;;;;;103633;1292;545130;-71
2024/02/24 12:48:22;;;;;;;5.80;2.00;;;;;;;;;;103510;1295;544931;-72
2024/02/24 12:52:00;;;;;;;5.70;2.50;;;;;;;;;;104327;1292;545009;-69
2024/02/24 12:55:40;;;;;;;7.70;2.90;;;;;;;;;;103678;1291;544800;-71
2024/02/24 12:59:12;;;;;;;10.40;4.80;;;;;;;;;;103501;1295;545347;-71
2024/02/24 13:02:55;;;;;;;5.90;2.30;;;;;;;;;;103668;1295;544771;-71
2024/02/24 13:06:30;;;;;;;7.50;3.20;;;;;;;;;;103736;1291;545204;-72
2024/02/24 13:10:08;;;;;;;5.60;2.10;;;;;;;;;;103454;1295;545778;-71
2024/02/24 13:13:45;;;;;;;7.60;3.10;;;;;;;;;;103691;1289;544780;-70
2024/02/24 13:17:22;;;;;;;5.60;2.30;;;;;;;;;;103769;1288;545417;-72
2024/02/24 13:21:00;;;;;;;6.80;2.10;;;;;;;;;;103746;1289;546470;-71
2024/02/24 13:24:37;;;;;;;5.70;2.20;;;;;;;;;;103696;1289;546071;-70
2024/02/24 13:28:15;;;;;;;6.00;2.30;;;;;;;;;;103617;1291;544694;-72
2024/02/24 13:31:52;;;;;;;5.80;2.50;;;;;;;;;;103656;1290;544795;-72
2024/02/24 13:35:30;;;;;;;6.10;2.60;;;;;;;;;;103801;1290;544797;-71
2024/02/24 13:39:07;;;;;;;5.50;2.00;;;;;;;;;;103672;1291;544778;-70
2024/02/24 13:42:42;;;;;;;7.30;2.50;;;;;;;;;;103903;1290;545002;-72
2024/02/24 13:46:22;;;;;;;7.40;2.60;;;;;;;;;;103536;1291;545994;-71
2024/02/24 13:50:00;;;;;;;5.60;2.30;;;;;;;;;;103695;1295;545508;-71
2024/02/24 13:53:36;;;;;;;6.50;2.60;;;;;;;;;;103705;1292;544758;-72
2024/02/24 13:57:15;;;;;;;4.60;1.80;;;;;;;;;;104068;1288;544678;-71
2024/02/24 14:00:52;;;;;;;6.40;2.30;;;;;;;;;;103675;1296;545029;-71
2024/02/24 14:04:30;;;;;;;8.00;3.20;;;;;;;;;;103869;1289;545337;-71
2024/02/24 14:08:04;;;;;;;11.90;6.10;;;;;;;;;;103819;1287;545685;-69
2024/02/24 14:11:44;;;;;;;19.20;10.10;;;;;;;;;;103736;1292;545018;-71
2024/02/24 14:15:22;;;;;;;15.10;7.80;;;;;;;;;;103630;1291;545370;-73
2024/02/24 14:18:59;;;;;;;12.90;5.80;;;;;;;;;;103677;1291;544980;-71
2024/02/24 14:22:36;;;;;;;7.20;2.60;;;;;;;;;;103636;1292;544763;-71
2024/02/24 14:26:14;;;;;;;8.70;3.30;;;;;;;;;;103464;1295;545039;-72
2024/02/24 14:29:51;;;;;;;7.20;2.80;;;;;;;;;;103614;1291;544971;-72
2024/02/24 14:33:30;;;;;;;5.10;1.80;;;;;;;;;;103812;1289;545633;-71
2024/02/24 14:37:06;;;;;;;5.90;2.10;;;;;;;;;;103912;1291;544931;-73
2024/02/24 14:40:48;;;;;;;6.70;2.60;;;;;;;;;;103780;1292;544776;-71
2024/02/24 14:44:21;;;;;;;6.20;2.40;;;;;;;;;;103915;1288;545893;-72
2024/02/24 14:48:00;;;;;;;7.00;2.80;;;;;;;;;;103858;1291;544945;-70
2024/02/24 14:51:36;;;;;;;8.00;3.30;;;;;;;;;;103698;1292;544765;-72
2024/02/24 14:55:14;;;;;;;7.80;2.90;;;;;;;;;;103637;1292;544975;-71
2024/02/24 14:58:51;;;;;;;9.00;3.00;;;;;;;;;;103608;1291;545158;-72
2024/02/24 15:02:29;;;;;;;10.70;4.30;;;;;;;;;;103613;1295;545054;-71
2024/02/24 15:06:06;;;;;;;39.80;25.40;;;;;;;;;;104017;1288;545638;-71
2024/02/24 15:09:43;;;;;;;70.60;46.30;;;;;;;;;;103723;1291;545473;-72
2024/02/24 15:13:21;;;;;;;45.30;32.80;;;;;;;;;;103618;1291;545397;-71
2024/02/24 15:16:59;;;;;;;36.40;26.30;;;;;;;;;;103740;1292;544827;-72
2024/02/24 15:20:36;;;;;;;73.40;49.00;;;;;;;;;;103747;1292;544773;-73
2024/02/24 15:24:10;;;;;;;50.00;34.80;;;;;;;;;;103890;1295;544945;-71
2024/02/24 15:27:52;;;;;;;22.70;11.50;;;;;;;;;;103666;1291;544862;-73
2024/02/24 15:31:29;;;;;;;18.00;8.40;;;;;;;;;;103662;1295;545027;-72
2024/02/24 15:35:06;;;;;;;10.30;4.70;;;;;;;;;;104175;1286;544752;-70
2024/02/24 15:38:40;;;;;;;19.00;9.00;;;;;;;;;;103571;1291;545448;-70
2024/02/24 15:42:16;;;;;;;21.20;10.40;;;;;;;;;;103595;1295;544929;-72
2024/02/24 15:45:59;;;;;;;17.50;9.00;;;;;;;;;;103782;1290;545079;-72
2024/02/24 15:49:32;;;;;;;14.80;7.00;;;;;;;;;;103901;1288;545649;-71
2024/02/24 15:53:13;;;;;;;25.20;14.40;;;;;;;;;;103768;1292;545934;-71
2024/02/24 15:56:52;;;;;;;41.80;27.60;;;;;;;;;;103818;1290;545140;-71
2024/02/24 16:00:28;;;;;;;47.00;29.60;;;;;;;;;;103805;1289;544821;-73
2024/02/24 16:04:06;;;;;;;64.20;39.20;;;;;;;;;;103757;1289;544807;-71
2024/02/24 16:07:39;;;;;;;39.60;23.60;;;;;;;;;;103846;1288;545001;-71
2024/02/24 16:11:20;;;;;;;68.20;33.30;;;;;;;;;;103711;1294;545095;-71
2024/02/24 16:14:59;;;;;;;25.90;12.20;;;;;;;;;;103844;1289;544704;-71
2024/02/24 16:18:35;;;;;;;28.20;13.30;;;;;;;;;;103628;1291;545022;-72
2024/02/24 16:22:13;;;;;;;94.10;42.40;;;;;;;;;;103758;1302;545069;-71
2024/02/24 16:25:50;;;;;;;111.40;49.00;;;;;;;;;;103769;1290;545336;-71
2024/02/24 16:29:29;;;;;;;56.90;27.10;;;;;;;;;;103738;1291;545057;-71
2024/02/24 16:33:01;;;;;;;56.70;27.70;;;;;;;;;;103833;1289;544984;-71
2024/02/24 16:36:43;;;;;;;44.80;22.50;;;;;;;;;;103672;1289;544719;-71
2024/02/24 16:40:20;;;;;;;33.60;17.90;;;;;;;;;;103979;1291;545322;-71
2024/02/24 16:43:58;;;;;;;31.30;16.20;;;;;;;;;;103978;1291;545359;-71
2024/02/24 16:47:37;;;;;;;28.30;13.80;;;;;;;;;;103640;1292;545872;-72
2024/02/24 16:51:13;;;;;;;23.30;12.80;;;;;;;;;;103771;1292;545431;-71
2024/02/24 16:54:50;;;;;;;22.00;12.40;;;;;;;;;;104038;1287;546033;-71
2024/02/24 16:58:27;;;;;;;33.60;12.70;;;;;;;;;;103906;1288;545553;-71
2024/02/24 17:02:05;;;;;;;26.20;15.30;;;;;;;;;;103626;1304;545439;-71
2024/02/24 17:05:42;;;;;;;34.50;19.60;;;;;;;;;;103797;1291;545129;-70
2024/02/24 17:09:20;;;;;;;29.00;15.20;;;;;;;;;;103466;1291;546365;-70
2024/02/24 17:12:59;;;;;;;19.20;9.30;;;;;;;;;;103702;1289;545474;-70
2024/02/24 17:16:35;;;;;;;19.80;11.60;;;;;;;;;;104050;1292;544979;-71
2024/02/24 17:20:13;;;;;;;18.60;9.80;;;;;;;;;;103342;1291;544932;-70
2024/02/24 17:23:50;;;;;;;24.20;12.30;;;;;;;;;;103641;1291;544904;-69
2024/02/24 17:27:27;;;;;;;26.80;13.50;;;;;;;;;;103962;1296;545511;-71
2024/02/24 17:31:04;;;;;;;27.80;12.70;;;;;;;;;;103275;1292;545081;-71
2024/02/24 17:34:42;;;;;;;24.10;11.60;;;;;;;;;;103780;1295;544833;-70
2024/02/24 17:38:23;;;;;;;17.20;8.20;;;;;;;;;;103838;1289;545158;-72
2024/02/24 17:41:57;;;;;;;12.70;6.00;;;;;;;;;;103739;1292;546261;-72
2024/02/24 17:45:31;;;;;;;13.50;5.50;;;;;;;;;;103680;1298;544845;-71
2024/02/24 17:49:13;;;;;;;11.80;5.80;;;;;;;;;;103770;1295;545063;-71
2024/02/24 17:52:50;;;;;;;14.20;6.30;;;;;;;;;;103714;1291;544806;-71
2024/02/24 17:56:32;;;;;;;17.20;8.60;;;;;;;;;;103802;1291;546053;-72
2024/02/24 18:00:08;;;;;;;20.50;10.10;;;;;;;;;;103667;1291;545154;-70
2024/02/24 18:03:42;;;;;;;23.80;11.40;;;;;;;;;;103635;1291;545761;-71
2024/02/24 18:07:19;;;;;;;24.30;12.60;;;;;;;;;;103827;1289;545470;-71
2024/02/24 18:10:57;;;;;;;29.30;14.00;;;;;;;;;;103875;1289;545021;-72
2024/02/24 18:14:31;;;;;;;27.70;14.90;;;;;;;;;;103842;1292;544921;-73
2024/02/24 18:18:13;;;;;;;26.20;13.30;;;;;;;;;;103750;1289;544916;-70
2024/02/24 18:21:49;;;;;;;27.30;13.80;;;;;;;;;;103815;1291;545045;-71
2024/02/24 18:25:28;;;;;;;23.60;11.80;;;;;;;;;;103801;1292;544795;-71
2024/02/24 18:29:04;;;;;;;22.40;11.80;;;;;;;;;;103645;1295;544868;-71
2024/02/24 18:32:41;;;;;;;14.60;7.50;;;;;;;;;;103922;1289;544733;-71
2024/02/24 18:36:20;;;;;;;16.50;7.60;;;;;;;;;;103680;1293;544964;-71
2024/02/24 18:39:54;;;;;;;25.70;15.00;;;;;;;;;;103854;1289;544807;-71
2024/02/24 18:43:34;;;;;;;47.10;28.30;;;;;;;;;;103704;1291;544756;-71
2024/02/24 18:47:11;;;;;;;26.00;14.20;;;;;;;;;;103797;1291;544808;-72
2024/02/24 18:50:49;;;;;;;18.10;9.40;;;;;;;;;;103653;1291;544777;-71
2024/02/24 18:54:28;;;;;;;29.80;14.50;;;;;;;;;;103804;1292;544975;-71
2024/02/24 18:58:04;;;;;;;51.20;24.60;;;;;;;;;;103780;1292;545174;-71
2024/02/24 19:01:41;;;;;;;56.10;28.00;;;;;;;;;;103854;1289;545415;-71
2024/02/24 19:05:18;;;;;;;64.10;33.40;;;;;;;;;;103464;1296;545256;-71
2024/02/24 19:08:56;;;;;;;60.00;31.30;;;;;;;;;;103740;1294;544773;-71
2024/02/24 19:12:34;;;;;;;46.80;25.70;;;;;;;;;;103689;1291;546297;-71
2024/02/24 19:16:11;;;;;;;39.80;20.80;;;;;;;;;;103809;1292;545535;-70
2024/02/24 19:19:48;;;;;;;39.40;20.70;;;;;;;;;;104400;1291;545605;-71
2024/02/24 19:23:23;;;;;;;33.60;19.00;;;;;;;;;;104066;1294;544961;-70
2024/02/24 19:27:03;;;;;;;29.00;17.20;;;;;;;;;;103819;1291;544951;-71
2024/02/24 19:30:41;;;;;;;37.10;22.40;;;;;;;;;;104698;1283;544937;-71
2024/02/24 19:34:19;;;;;;;45.90;25.80;;;;;;;;;;103634;1296;545425;-71
2024/02/24 19:37:53;;;;;;;44.20;23.20;;;;;;;;;;103831;1292;545719;-72
2024/02/24 19:41:35;;;;;;;43.40;24.30;;;;;;;;;;103536;1292;545666;-71
2024/02/24 19:45:08;;;;;;;32.80;18.30;;;;;;;;;;103835;1289;545240;-72
2024/02/24 19:48:49;;;;;;;27.50;16.80;;;;;;;;;;103929;1289;545145;-70
2024/02/24 19:52:26;;;;;;;26.60;15.30;;;;;;;;;;103795;1289;544850;-71
2024/02/24 19:56:03;;;;;;;25.10;14.60;;;;;;;;;;103804;1291;544732;-71
2024/02/24 19:59:42;;;;;;;23.40;14.20;;;;;;;;;;103806;1292;544958;-70
2024/02/24 20:03:16;;;;;;;25.80;14.80;;;;;;;;;;103808;1289;545103;-71
2024/02/24 20:06:56;;;;;;;31.50;17.40;;;;;;;;;;103739;1291;544833;-71
2024/02/24 20:10:33;;;;;;;23.90;13.80;;;;;;;;;;103806;1291;545181;-71
2024/02/24 20:14:11;;;;;;;20.50;12.10;;;;;;;;;;103672;1292;545810;-70
2024/02/24 20:17:44;;;;;;;21.20;12.60;;;;;;;;;;103845;1289;545260;-71
2024/02/24 20:21:27;;;;;;;22.80;12.80;;;;;;;;;;103853;1292;544847;-71
2024/02/24 20:25:03;;;;;;;22.00;12.40;;;;;;;;;;103432;1292;545816;-71
2024/02/24 20:28:40;;;;;;;20.00;11.50;;;;;;;;;;103812;1295;545409;-71
2024/02/24 20:32:18;;;;;;;26.90;13.90;;;;;;;;;;103713;1295;544787;-71
2024/02/24 20:35:55;;;;;;;33.30;17.00;;;;;;;;;;103828;1289;544798;-71
2024/02/24 20:39:33;;;;;;;39.00;19.00;;;;;;;;;;103652;1291;544914;-71
2024/02/24 20:43:11;;;;;;;33.00;17.40;;;;;;;;;;103810;1292;545376;-71
2024/02/24 20:46:49;;;;;;;32.60;18.00;;;;;;;;;;103677;1294;545919;-71
2024/02/24 20:50:28;;;;;;;37.20;18.80;;;;;;;;;;103885;1291;545061;-71
2024/02/24 20:54:02;;;;;;;35.80;18.10;;;;;;;;;;103706;1291;545127;-71